Terminal Aerodrome Forecast
Issued by NWS Cleveland, OH

Home | Current Version | Previous Version | Text Only | Print | Product List | Glossary On
Versions: 1 2 3 4 5 6 7 8 9 10 11 12 13 14
614
FTUS41 KCLE 271729
TAFERI
TAF
KERI 271729Z 2718/2818 22015G30KT P6SM SCT050
     FM280000 18010KT P6SM OVC250
     FM281500 14010G20KT P6SM OVC250=

USA.gov is the U.S. government's official web portal to all federal, state and local government web resources and services.